Majestic — ZCPX7 — position and weather

sailwx.info

Track history (hours):
 
Tides and Currents Weather Stations Pressure Air Temp Water Temp Dewpoint Dewpoint Depression Visibility Wind Speed Wind Dir Waves Ship Positions

Majestic

Last reported at 2014-Sep-21 21:30 UTC. Time now 2014-Sep-21 22:13 UTC.
Position N 36°50' W 076°18'.

Length 61 m; draft 3.4 m.

Type: Pleasure craft. MMSI: 319654000.

Date/timePositionNaut miles runAvg speedWind from/ knotsBaromVisibWave heightAir tempDewpointWater temp
2014-Sep-21 21:30N 36°50' W 076°18'0 0.0
2014-Sep-21 20:30N 36°50' W 076°18'0 0.0
2014-Sep-21 19:33N 36°50' W 076°18'0 0.0
2014-Sep-21 18:32N 36°50' W 076°18'0 0.0
2014-Sep-21 17:20N 36°50' W 076°18'0 0.0
2014-Sep-21 16:29N 36°50' W 076°18'0 0.0
2014-Sep-21 06:33N 36°50' W 076°18'0 0.0
2014-Sep-21 04:17N 36°50' W 076°18'0 0.0
2014-Sep-20 21:28N 36°50' W 076°18'0 0.0
2014-Sep-20 20:27N 36°50' W 076°18'0 0.0
2014-Sep-20 19:11N 36°50' W 076°18'0 0.0
2014-Sep-19 20:15N 36°50' W 076°18'0 0.0
2014-Sep-19 17:08N 36°50' W 076°18'0 0.0
2014-Sep-19 16:33N 36°50' W 076°18'0 0.0
2014-Sep-19 15:32N 36°50' W 076°18'0 0.0
2014-Sep-19 14:11N 36°50' W 076°18'0 0.0
2014-Sep-19 12:29N 36°50' W 076°18'0 0.0
2014-Sep-19 11:22N 36°50' W 076°18'0 0.0
2014-Sep-19 10:22N 36°50' W 076°18'0 0.0
2014-Sep-19 09:31N 36°50' W 076°18'0 0.0
2014-Sep-19 08:31N 36°50' W 076°18'0 0.0
2014-Sep-19 02:30N 36°50' W 076°18'0 0.0
2014-Sep-19 01:23N 36°50' W 076°18'0 0.0
2014-Sep-19 00:33N 36°50' W 076°18'0 0.0
2014-Sep-18 17:33N 36°50' W 076°18'0 0.0
2014-Sep-18 16:05N 36°50' W 076°18'1 1.9
2014-Sep-18 15:30N 36°51' W 076°18'8 8.5
2014-Sep-18 14:33N 36°59' W 076°20'1110.7
2014-Sep-18 13:33N 36°58' W 076°06'1111.1
2014-Sep-18 12:33N 36°57' W 075°52'  
2014-Sep-13 02:33N 46°29' W 072°14'1313.2
2014-Sep-13 01:33N 46°22' W 072°30'4112.1
2014-Sep-12 22:11N 45°54' W 073°13'813.6
2014-Sep-12 21:33N 45°47' W 073°21'1313.4
2014-Sep-12 20:33N 45°36' W 073°30'6 6.3
2014-Sep-12 19:33N 45°30' W 073°33'0 0.0
2014-Sep-12 18:33N 45°30' W 073°33'1 1.2
2014-Sep-12 17:33N 45°30' W 073°31'5 5.3
2014-Sep-12 16:33N 45°24' W 073°32'5 4.6
2014-Sep-12 15:33N 45°24' W 073°39'1010.3
2014-Sep-12 14:34N 45°21' W 073°53'3 3.2
2014-Sep-12 13:33N 45°18' W 073°56'8 7.5
2014-Sep-12 12:33N 45°13' W 074°04'1212.1
2014-Sep-12 11:33N 45°10' W 074°20'  
Track history (hours):
 
Tides and Currents Weather Stations Pressure Air Temp Water Temp Dewpoint Dewpoint Depression Visibility Wind Speed Wind Dir Waves Ship Positions

Majestic

Last reported at 2014-Sep-21 21:30 UTC. Time now 2014-Sep-21 22:13 UTC.
Position N 36°50' W 076°18'.

Length 61 m; draft 3.4 m.

Type: Pleasure craft. MMSI: 319654000.

Date/timePositionNaut miles runAvg speedWind from/ knotsBaromVisibWave heightAir tempDewpointWater temp
2014-Sep-21 21:30N 36°50' W 076°18'0 0.0
2014-Sep-21 20:30N 36°50' W 076°18'0 0.0
2014-Sep-21 19:33N 36°50' W 076°18'0 0.0
2014-Sep-21 18:32N 36°50' W 076°18'0 0.0
2014-Sep-21 17:20N 36°50' W 076°18'0 0.0
2014-Sep-21 16:29N 36°50' W 076°18'0 0.0
2014-Sep-21 06:33N 36°50' W 076°18'0 0.0
2014-Sep-21 04:17N 36°50' W 076°18'0 0.0
2014-Sep-20 21:28N 36°50' W 076°18'0 0.0
2014-Sep-20 20:27N 36°50' W 076°18'0 0.0
2014-Sep-20 19:11N 36°50' W 076°18'0 0.0
2014-Sep-19 20:15N 36°50' W 076°18'0 0.0
2014-Sep-19 17:08N 36°50' W 076°18'0 0.0
2014-Sep-19 16:33N 36°50' W 076°18'0 0.0
2014-Sep-19 15:32N 36°50' W 076°18'0 0.0
2014-Sep-19 14:11N 36°50' W 076°18'0 0.0
2014-Sep-19 12:29N 36°50' W 076°18'0 0.0
2014-Sep-19 11:22N 36°50' W 076°18'0 0.0
2014-Sep-19 10:22N 36°50' W 076°18'0 0.0
2014-Sep-19 09:31N 36°50' W 076°18'0 0.0
2014-Sep-19 08:31N 36°50' W 076°18'0 0.0
2014-Sep-19 02:30N 36°50' W 076°18'0 0.0
2014-Sep-19 01:23N 36°50' W 076°18'0 0.0
2014-Sep-19 00:33N 36°50' W 076°18'0 0.0
2014-Sep-18 17:33N 36°50' W 076°18'0 0.0
2014-Sep-18 16:05N 36°50' W 076°18'1 1.9
2014-Sep-18 15:30N 36°51' W 076°18'8 8.5
2014-Sep-18 14:33N 36°59' W 076°20'1110.7
2014-Sep-18 13:33N 36°58' W 076°06'1111.1
2014-Sep-18 12:33N 36°57' W 075°52'  
2014-Sep-13 02:33N 46°29' W 072°14'1313.2
2014-Sep-13 01:33N 46°22' W 072°30'4112.1
2014-Sep-12 22:11N 45°54' W 073°13'813.6
2014-Sep-12 21:33N 45°47' W 073°21'1313.4
2014-Sep-12 20:33N 45°36' W 073°30'6 6.3
2014-Sep-12 19:33N 45°30' W 073°33'0 0.0
2014-Sep-12 18:33N 45°30' W 073°33'1 1.2
2014-Sep-12 17:33N 45°30' W 073°31'5 5.3
2014-Sep-12 16:33N 45°24' W 073°32'5 4.6
2014-Sep-12 15:33N 45°24' W 073°39'1010.3
2014-Sep-12 14:34N 45°21' W 073°53'3 3.2
2014-Sep-12 13:33N 45°18' W 073°56'8 7.5
2014-Sep-12 12:33N 45°13' W 074°04'1212.1
2014-Sep-12 11:33N 45°10' W 074°20'  

Dump ship's entire track history